sensor_id;sensor_type;location;lat;lon;timestamp;P1;durP1;ratioP1;P2;durP2;ratioP2
73900;SDS011;62235;52.160;7.526;2023-05-10T00:02:21;4.43;;;2.77;;
73900;SDS011;62235;52.160;7.526;2023-05-10T00:04:46;3.50;;;2.70;;
73900;SDS011;62235;52.160;7.526;2023-05-10T00:07:11;4.20;;;2.77;;
73900;SDS011;62235;52.160;7.526;2023-05-10T00:09:37;4.47;;;3.23;;
73900;SDS011;62235;52.160;7.526;2023-05-10T00:12:02;5.32;;;3.40;;
73900;SDS011;62235;52.160;7.526;2023-05-10T00:14:27;5.38;;;3.42;;
73900;SDS011;62235;52.160;7.526;2023-05-10T00:16:53;5.72;;;3.40;;
73900;SDS011;62235;52.160;7.526;2023-05-10T00:19:18;4.13;;;3.17;;
73900;SDS011;62235;52.160;7.526;2023-05-10T00:21:43;5.47;;;3.40;;
73900;SDS011;62235;52.160;7.526;2023-05-10T00:24:09;5.43;;;3.80;;
73900;SDS011;62235;52.160;7.526;2023-05-10T00:26:34;5.70;;;3.33;;
73900;SDS011;62235;52.160;7.526;2023-05-10T00:28:59;6.77;;;3.77;;
73900;SDS011;62235;52.160;7.526;2023-05-10T00:31:25;5.60;;;3.63;;
73900;SDS011;62235;52.160;7.526;2023-05-10T00:33:50;4.72;;;3.15;;
73900;SDS011;62235;52.160;7.526;2023-05-10T00:36:15;4.60;;;3.03;;
73900;SDS011;62235;52.160;7.526;2023-05-10T00:38:41;4.17;;;2.60;;
73900;SDS011;62235;52.160;7.526;2023-05-10T00:41:06;2.97;;;2.07;;
73900;SDS011;62235;52.160;7.526;2023-05-10T00:43:32;2.47;;;1.80;;
73900;SDS011;62235;52.160;7.526;2023-05-10T00:45:57;2.90;;;1.63;;
73900;SDS011;62235;52.160;7.526;2023-05-10T00:48:22;2.30;;;1.35;;
73900;SDS011;62235;52.160;7.526;2023-05-10T00:50:48;1.70;;;1.17;;
73900;SDS011;62235;52.160;7.526;2023-05-10T00:53:14;1.92;;;1.30;;
73900;SDS011;62235;52.160;7.526;2023-05-10T00:55:39;1.95;;;1.40;;
73900;SDS011;62235;52.160;7.526;2023-05-10T00:58:04;2.03;;;1.30;;
73900;SDS011;62235;52.160;7.526;2023-05-10T01:00:30;2.35;;;1.30;;
73900;SDS011;62235;52.160;7.526;2023-05-10T01:02:55;2.60;;;1.70;;
73900;SDS011;62235;52.160;7.526;2023-05-10T01:05:21;3.33;;;1.85;;
73900;SDS011;62235;52.160;7.526;2023-05-10T01:07:46;2.65;;;1.70;;
73900;SDS011;62235;52.160;7.526;2023-05-10T01:10:13;3.63;;;1.88;;
73900;SDS011;62235;52.160;7.526;2023-05-10T01:12:39;4.65;;;2.08;;
73900;SDS011;62235;52.160;7.526;2023-05-10T01:15:06;2.38;;;1.65;;
73900;SDS011;62235;52.160;7.526;2023-05-10T01:17:32;3.35;;;1.85;;
73900;SDS011;62235;52.160;7.526;2023-05-10T01:19:57;3.88;;;2.53;;
73900;SDS011;62235;52.160;7.526;2023-05-10T01:22:40;3.83;;;2.60;;
73900;SDS011;62235;52.160;7.526;2023-05-10T01:25:28;4.03;;;2.40;;
73900;SDS011;62235;52.160;7.526;2023-05-10T01:33:39;4.82;;;1.52;;
73900;SDS011;62235;52.160;7.526;2023-05-10T01:36:27;4.57;;;2.90;;
73900;SDS011;62235;52.160;7.526;2023-05-10T01:44:16;1.23;;;0.88;;
73900;SDS011;62235;52.160;7.526;2023-05-10T01:46:43;2.40;;;1.38;;
73900;SDS011;62235;52.160;7.526;2023-05-10T01:49:19;1.67;;;1.08;;
73900;SDS011;62235;52.160;7.526;2023-05-10T01:51:50;3.22;;;1.25;;
73900;SDS011;62235;52.160;7.526;2023-05-10T01:54:19;2.05;;;0.95;;
73900;SDS011;62235;52.160;7.526;2023-05-10T01:56:44;1.08;;;0.82;;
73900;SDS011;62235;52.160;7.526;2023-05-10T01:59:13;2.03;;;1.30;;
73900;SDS011;62235;52.160;7.526;2023-05-10T02:01:41;0.10;;;0.10;;
73900;SDS011;62235;52.160;7.526;2023-05-10T02:04:08;1.70;;;1.02;;
73900;SDS011;62235;52.160;7.526;2023-05-10T02:06:34;1.38;;;0.90;;
73900;SDS011;62235;52.160;7.526;2023-05-10T02:09:01;2.22;;;1.75;;
73900;SDS011;62235;52.160;7.526;2023-05-10T02:11:27;3.05;;;2.08;;
73900;SDS011;62235;52.160;7.526;2023-05-10T02:13:52;2.90;;;1.40;;
73900;SDS011;62235;52.160;7.526;2023-05-10T02:16:18;1.58;;;1.00;;
73900;SDS011;62235;52.160;7.526;2023-05-10T02:18:47;4.50;;;1.70;;
73900;SDS011;62235;52.160;7.526;2023-05-10T02:21:13;3.15;;;2.03;;
73900;SDS011;62235;52.160;7.526;2023-05-10T02:23:40;2.55;;;1.65;;
73900;SDS011;62235;52.160;7.526;2023-05-10T02:26:06;3.08;;;2.38;;
73900;SDS011;62235;52.160;7.526;2023-05-10T02:28:31;1.70;;;1.15;;
73900;SDS011;62235;52.160;7.526;2023-05-10T02:30:57;4.45;;;2.40;;
73900;SDS011;62235;52.160;7.526;2023-05-10T02:33:22;4.80;;;2.90;;
73900;SDS011;62235;52.160;7.526;2023-05-10T02:35:48;5.43;;;2.67;;
73900;SDS011;62235;52.160;7.526;2023-05-10T02:38:15;4.28;;;2.67;;
73900;SDS011;62235;52.160;7.526;2023-05-10T02:40:41;4.45;;;2.72;;
73900;SDS011;62235;52.160;7.526;2023-05-10T02:43:09;4.13;;;2.45;;
73900;SDS011;62235;52.160;7.526;2023-05-10T02:45:37;4.57;;;2.83;;
73900;SDS011;62235;52.160;7.526;2023-05-10T02:48:03;4.28;;;2.63;;
73900;SDS011;62235;52.160;7.526;2023-05-10T02:50:29;5.53;;;2.38;;
73900;SDS011;62235;52.160;7.526;2023-05-10T02:52:56;4.50;;;2.45;;
73900;SDS011;62235;52.160;7.526;2023-05-10T02:55:25;2.50;;;1.65;;
73900;SDS011;62235;52.160;7.526;2023-05-10T02:57:54;3.38;;;2.42;;
73900;SDS011;62235;52.160;7.526;2023-05-10T03:00:24;4.55;;;2.90;;
73900;SDS011;62235;52.160;7.526;2023-05-10T03:02:49;4.97;;;3.22;;
73900;SDS011;62235;52.160;7.526;2023-05-10T03:05:15;4.70;;;3.10;;
73900;SDS011;62235;52.160;7.526;2023-05-10T03:07:40;4.70;;;2.70;;
73900;SDS011;62235;52.160;7.526;2023-05-10T03:10:05;4.85;;;3.03;;
73900;SDS011;62235;52.160;7.526;2023-05-10T03:12:33;4.45;;;2.53;;
73900;SDS011;62235;52.160;7.526;2023-05-10T03:17:47;4.45;;;2.92;;
73900;SDS011;62235;52.160;7.526;2023-05-10T03:20:23;6.70;;;2.47;;
73900;SDS011;62235;52.160;7.526;2023-05-10T03:25:54;3.65;;;2.60;;
73900;SDS011;62235;52.160;7.526;2023-05-10T03:28:20;4.32;;;2.80;;
73900;SDS011;62235;52.160;7.526;2023-05-10T03:30:46;4.30;;;2.50;;
73900;SDS011;62235;52.160;7.526;2023-05-10T03:33:12;3.75;;;2.67;;
73900;SDS011;62235;52.160;7.526;2023-05-10T03:35:38;3.63;;;2.30;;
73900;SDS011;62235;52.160;7.526;2023-05-10T03:38:03;5.50;;;2.78;;
73900;SDS011;62235;52.160;7.526;2023-05-10T03:40:29;4.68;;;3.00;;
73900;SDS011;62235;52.160;7.526;2023-05-10T03:42:56;4.72;;;2.95;;
73900;SDS011;62235;52.160;7.526;2023-05-10T03:45:21;5.20;;;3.22;;
73900;SDS011;62235;52.160;7.526;2023-05-10T03:47:47;6.72;;;3.40;;
73900;SDS011;62235;52.160;7.526;2023-05-10T03:50:12;4.83;;;3.23;;
73900;SDS011;62235;52.160;7.526;2023-05-10T03:52:37;5.25;;;3.00;;
73900;SDS011;62235;52.160;7.526;2023-05-10T03:55:04;4.82;;;2.92;;
73900;SDS011;62235;52.160;7.526;2023-05-10T03:57:30;5.85;;;3.55;;
73900;SDS011;62235;52.160;7.526;2023-05-10T03:59:55;5.43;;;3.72;;
73900;SDS011;62235;52.160;7.526;2023-05-10T04:02:21;6.60;;;3.90;;
73900;SDS011;62235;52.160;7.526;2023-05-10T04:04:46;6.20;;;4.17;;
73900;SDS011;62235;52.160;7.526;2023-05-10T04:07:11;11.50;;;4.25;;
73900;SDS011;62235;52.160;7.526;2023-05-10T04:09:37;6.47;;;4.00;;
73900;SDS011;62235;52.160;7.526;2023-05-10T04:12:02;6.87;;;3.90;;
73900;SDS011;62235;52.160;7.526;2023-05-10T04:14:27;6.65;;;3.80;;
73900;SDS011;62235;52.160;7.526;2023-05-10T04:16:53;7.13;;;4.10;;
73900;SDS011;62235;52.160;7.526;2023-05-10T04:19:18;8.97;;;4.93;;
73900;SDS011;62235;52.160;7.526;2023-05-10T04:21:43;7.40;;;4.32;;
73900;SDS011;62235;52.160;7.526;2023-05-10T04:24:09;5.93;;;3.83;;
73900;SDS011;62235;52.160;7.526;2023-05-10T04:26:34;7.00;;;3.80;;
73900;SDS011;62235;52.160;7.526;2023-05-10T04:28:59;6.05;;;3.85;;
73900;SDS011;62235;52.160;7.526;2023-05-10T04:31:25;7.93;;;4.17;;
73900;SDS011;62235;52.160;7.526;2023-05-10T04:33:51;6.70;;;4.07;;
73900;SDS011;62235;52.160;7.526;2023-05-10T04:36:17;9.98;;;4.22;;
73900;SDS011;62235;52.160;7.526;2023-05-10T04:38:42;8.23;;;4.80;;
73900;SDS011;62235;52.160;7.526;2023-05-10T04:41:08;8.47;;;4.80;;
73900;SDS011;62235;52.160;7.526;2023-05-10T04:43:34;9.15;;;5.25;;
73900;SDS011;62235;52.160;7.526;2023-05-10T04:46:00;7.18;;;4.45;;
73900;SDS011;62235;52.160;7.526;2023-05-10T04:48:25;8.63;;;4.72;;
73900;SDS011;62235;52.160;7.526;2023-05-10T04:50:51;7.80;;;5.07;;
73900;SDS011;62235;52.160;7.526;2023-05-10T04:53:17;8.38;;;5.10;;
73900;SDS011;62235;52.160;7.526;2023-05-10T04:55:42;8.13;;;4.75;;
73900;SDS011;62235;52.160;7.526;2023-05-10T04:58:07;8.03;;;5.17;;
73900;SDS011;62235;52.160;7.526;2023-05-10T05:00:33;9.73;;;5.77;;
73900;SDS011;62235;52.160;7.526;2023-05-10T05:02:58;9.95;;;5.70;;
73900;SDS011;62235;52.160;7.526;2023-05-10T05:05:24;9.68;;;4.68;;
73900;SDS011;62235;52.160;7.526;2023-05-10T05:07:50;12.55;;;5.35;;
73900;SDS011;62235;52.160;7.526;2023-05-10T05:10:15;9.70;;;5.80;;
73900;SDS011;62235;52.160;7.526;2023-05-10T05:12:41;11.68;;;5.30;;
73900;SDS011;62235;52.160;7.526;2023-05-10T05:15:06;8.15;;;5.07;;
73900;SDS011;62235;52.160;7.526;2023-05-10T05:17:34;8.85;;;5.22;;
73900;SDS011;62235;52.160;7.526;2023-05-10T05:19:59;10.43;;;5.25;;
73900;SDS011;62235;52.160;7.526;2023-05-10T05:22:24;15.33;;;5.53;;
73900;SDS011;62235;52.160;7.526;2023-05-10T05:27:19;9.23;;;5.22;;
73900;SDS011;62235;52.160;7.526;2023-05-10T05:29:47;9.27;;;5.45;;
73900;SDS011;62235;52.160;7.526;2023-05-10T05:32:12;9.82;;;5.30;;
73900;SDS011;62235;52.160;7.526;2023-05-10T05:34:38;10.73;;;5.28;;
73900;SDS011;62235;52.160;7.526;2023-05-10T05:37:04;10.55;;;5.30;;
73900;SDS011;62235;52.160;7.526;2023-05-10T05:39:29;10.48;;;5.50;;
73900;SDS011;62235;52.160;7.526;2023-05-10T05:41:55;13.30;;;6.70;;
73900;SDS011;62235;52.160;7.526;2023-05-10T05:44:20;10.37;;;5.73;;
73900;SDS011;62235;52.160;7.526;2023-05-10T05:46:45;12.43;;;5.83;;
73900;SDS011;62235;52.160;7.526;2023-05-10T05:49:10;11.83;;;6.27;;
73900;SDS011;62235;52.160;7.526;2023-05-10T05:51:36;9.65;;;5.43;;
73900;SDS011;62235;52.160;7.526;2023-05-10T05:54:01;12.55;;;6.25;;
73900;SDS011;62235;52.160;7.526;2023-05-10T05:56:28;12.95;;;6.57;;
73900;SDS011;62235;52.160;7.526;2023-05-10T05:58:53;12.20;;;6.30;;
73900;SDS011;62235;52.160;7.526;2023-05-10T06:01:19;12.20;;;6.23;;
73900;SDS011;62235;52.160;7.526;2023-05-10T06:03:44;14.07;;;6.90;;
73900;SDS011;62235;52.160;7.526;2023-05-10T06:06:09;16.50;;;7.83;;
73900;SDS011;62235;52.160;7.526;2023-05-10T06:08:35;16.73;;;7.17;;
73900;SDS011;62235;52.160;7.526;2023-05-10T06:11:00;16.20;;;7.63;;
73900;SDS011;62235;52.160;7.526;2023-05-10T06:13:26;18.63;;;7.70;;
73900;SDS011;62235;52.160;7.526;2023-05-10T06:15:56;20.85;;;8.98;;
73900;SDS011;62235;52.160;7.526;2023-05-10T06:18:22;19.92;;;8.82;;
73900;SDS011;62235;52.160;7.526;2023-05-10T06:20:49;23.23;;;9.60;;
73900;SDS011;62235;52.160;7.526;2023-05-10T06:23:14;25.08;;;9.30;;
73900;SDS011;62235;52.160;7.526;2023-05-10T06:25:40;22.83;;;10.30;;
73900;SDS011;62235;52.160;7.526;2023-05-10T06:28:05;24.33;;;9.73;;
73900;SDS011;62235;52.160;7.526;2023-05-10T06:30:30;25.85;;;10.48;;
73900;SDS011;62235;52.160;7.526;2023-05-10T06:32:56;24.17;;;10.38;;
73900;SDS011;62235;52.160;7.526;2023-05-10T06:35:21;26.40;;;10.77;;
73900;SDS011;62235;52.160;7.526;2023-05-10T06:37:46;30.23;;;10.98;;
73900;SDS011;62235;52.160;7.526;2023-05-10T06:40:12;29.50;;;11.47;;
73900;SDS011;62235;52.160;7.526;2023-05-10T06:42:37;26.55;;;10.43;;
73900;SDS011;62235;52.160;7.526;2023-05-10T06:45:03;35.07;;;14.00;;
73900;SDS011;62235;52.160;7.526;2023-05-10T06:47:28;30.75;;;11.90;;
73900;SDS011;62235;52.160;7.526;2023-05-10T06:49:54;24.90;;;9.93;;
73900;SDS011;62235;52.160;7.526;2023-05-10T06:52:19;32.45;;;12.90;;
73900;SDS011;62235;52.160;7.526;2023-05-10T06:54:45;31.63;;;13.70;;
73900;SDS011;62235;52.160;7.526;2023-05-10T06:57:10;28.33;;;12.40;;
73900;SDS011;62235;52.160;7.526;2023-05-10T06:59:35;31.00;;;11.80;;
73900;SDS011;62235;52.160;7.526;2023-05-10T07:02:01;37.58;;;14.23;;
73900;SDS011;62235;52.160;7.526;2023-05-10T07:04:27;32.08;;;12.98;;
73900;SDS011;62235;52.160;7.526;2023-05-10T07:06:52;36.47;;;14.13;;
73900;SDS011;62235;52.160;7.526;2023-05-10T07:09:18;30.87;;;12.07;;
73900;SDS011;62235;52.160;7.526;2023-05-10T07:11:43;30.83;;;11.65;;
73900;SDS011;62235;52.160;7.526;2023-05-10T07:14:08;37.10;;;14.23;;
73900;SDS011;62235;52.160;7.526;2023-05-10T07:16:34;33.20;;;13.65;;
73900;SDS011;62235;52.160;7.526;2023-05-10T07:18:59;29.23;;;12.07;;
73900;SDS011;62235;52.160;7.526;2023-05-10T07:21:25;29.63;;;10.88;;
73900;SDS011;62235;52.160;7.526;2023-05-10T07:23:53;21.75;;;9.32;;
73900;SDS011;62235;52.160;7.526;2023-05-10T07:26:18;32.20;;;12.20;;
73900;SDS011;62235;52.160;7.526;2023-05-10T07:28:45;31.65;;;12.88;;
73900;SDS011;62235;52.160;7.526;2023-05-10T07:31:10;31.15;;;12.88;;
73900;SDS011;62235;52.160;7.526;2023-05-10T07:33:35;38.43;;;13.80;;
73900;SDS011;62235;52.160;7.526;2023-05-10T07:36:01;36.50;;;14.27;;
73900;SDS011;62235;52.160;7.526;2023-05-10T07:38:26;30.90;;;12.77;;
73900;SDS011;62235;52.160;7.526;2023-05-10T07:40:51;32.42;;;13.63;;
73900;SDS011;62235;52.160;7.526;2023-05-10T07:43:17;31.83;;;12.13;;
73900;SDS011;62235;52.160;7.526;2023-05-10T07:45:42;31.13;;;13.80;;
73900;SDS011;62235;52.160;7.526;2023-05-10T07:48:08;37.60;;;14.70;;
73900;SDS011;62235;52.160;7.526;2023-05-10T07:50:33;31.53;;;13.93;;
73900;SDS011;62235;52.160;7.526;2023-05-10T07:52:58;32.58;;;13.32;;
73900;SDS011;62235;52.160;7.526;2023-05-10T07:55:24;33.67;;;13.63;;
73900;SDS011;62235;52.160;7.526;2023-05-10T07:57:49;33.15;;;12.30;;
73900;SDS011;62235;52.160;7.526;2023-05-10T08:00:18;31.98;;;13.18;;
73900;SDS011;62235;52.160;7.526;2023-05-10T08:02:44;33.72;;;13.50;;
73900;SDS011;62235;52.160;7.526;2023-05-10T08:05:09;30.05;;;11.75;;
73900;SDS011;62235;52.160;7.526;2023-05-10T08:07:35;33.47;;;13.07;;
73900;SDS011;62235;52.160;7.526;2023-05-10T08:10:01;30.17;;;11.70;;
73900;SDS011;62235;52.160;7.526;2023-05-10T08:12:27;30.80;;;11.95;;
73900;SDS011;62235;52.160;7.526;2023-05-10T08:14:52;35.10;;;13.07;;
73900;SDS011;62235;52.160;7.526;2023-05-10T08:17:17;27.80;;;11.93;;
73900;SDS011;62235;52.160;7.526;2023-05-10T08:19:44;25.20;;;10.43;;
73900;SDS011;62235;52.160;7.526;2023-05-10T08:22:09;21.98;;;9.93;;
73900;SDS011;62235;52.160;7.526;2023-05-10T08:24:35;24.00;;;10.63;;
73900;SDS011;62235;52.160;7.526;2023-05-10T08:27:03;26.05;;;11.75;;
73900;SDS011;62235;52.160;7.526;2023-05-10T08:29:29;25.75;;;11.45;;
73900;SDS011;62235;52.160;7.526;2023-05-10T08:31:55;30.77;;;10.07;;
73900;SDS011;62235;52.160;7.526;2023-05-10T08:34:20;26.60;;;10.30;;
73900;SDS011;62235;52.160;7.526;2023-05-10T08:36:45;21.83;;;10.63;;
73900;SDS011;62235;52.160;7.526;2023-05-10T08:39:10;21.93;;;10.53;;
73900;SDS011;62235;52.160;7.526;2023-05-10T08:41:36;29.92;;;13.75;;
73900;SDS011;62235;52.160;7.526;2023-05-10T08:44:04;26.33;;;12.23;;
73900;SDS011;62235;52.160;7.526;2023-05-10T08:46:30;26.40;;;10.32;;
73900;SDS011;62235;52.160;7.526;2023-05-10T08:49:00;28.10;;;12.00;;
73900;SDS011;62235;52.160;7.526;2023-05-10T08:51:27;28.23;;;11.48;;
73900;SDS011;62235;52.160;7.526;2023-05-10T08:53:54;31.17;;;13.70;;
73900;SDS011;62235;52.160;7.526;2023-05-10T08:56:20;30.25;;;12.23;;
73900;SDS011;62235;52.160;7.526;2023-05-10T08:58:45;29.20;;;13.43;;
73900;SDS011;62235;52.160;7.526;2023-05-10T09:01:12;27.75;;;13.18;;
73900;SDS011;62235;52.160;7.526;2023-05-10T09:03:38;26.10;;;11.20;;
73900;SDS011;62235;52.160;7.526;2023-05-10T09:06:04;29.77;;;12.63;;
73900;SDS011;62235;52.160;7.526;2023-05-10T09:08:30;30.70;;;12.80;;
73900;SDS011;62235;52.160;7.526;2023-05-10T09:10:56;18.27;;;7.95;;
73900;SDS011;62235;52.160;7.526;2023-05-10T09:13:21;18.73;;;7.10;;
73900;SDS011;62235;52.160;7.526;2023-05-10T09:15:47;25.75;;;10.70;;
73900;SDS011;62235;52.160;7.526;2023-05-10T09:18:13;24.90;;;10.02;;
73900;SDS011;62235;52.160;7.526;2023-05-10T09:20:38;24.77;;;10.75;;
73900;SDS011;62235;52.160;7.526;2023-05-10T09:23:04;23.75;;;10.52;;
73900;SDS011;62235;52.160;7.526;2023-05-10T09:25:30;24.40;;;9.77;;
73900;SDS011;62235;52.160;7.526;2023-05-10T09:27:58;24.05;;;10.23;;
73900;SDS011;62235;52.160;7.526;2023-05-10T09:30:24;26.73;;;12.50;;
73900;SDS011;62235;52.160;7.526;2023-05-10T09:32:56;33.58;;;13.60;;
73900;SDS011;62235;52.160;7.526;2023-05-10T09:35:23;20.55;;;8.60;;
73900;SDS011;62235;52.160;7.526;2023-05-10T09:37:50;16.13;;;6.72;;
73900;SDS011;62235;52.160;7.526;2023-05-10T09:42:51;21.42;;;10.50;;
73900;SDS011;62235;52.160;7.526;2023-05-10T09:45:24;23.95;;;12.95;;
73900;SDS011;62235;52.160;7.526;2023-05-10T09:47:50;20.45;;;8.80;;
73900;SDS011;62235;52.160;7.526;2023-05-10T09:50:16;16.95;;;6.35;;
73900;SDS011;62235;52.160;7.526;2023-05-10T09:52:48;15.98;;;7.28;;
73900;SDS011;62235;52.160;7.526;2023-05-10T09:55:15;20.13;;;8.60;;
73900;SDS011;62235;52.160;7.526;2023-05-10T09:57:40;18.40;;;8.75;;
73900;SDS011;62235;52.160;7.526;2023-05-10T10:00:06;12.57;;;5.23;;
73900;SDS011;62235;52.160;7.526;2023-05-10T10:02:32;22.60;;;10.98;;
73900;SDS011;62235;52.160;7.526;2023-05-10T10:04:58;25.35;;;10.85;;
73900;SDS011;62235;52.160;7.526;2023-05-10T10:07:25;15.55;;;6.80;;
73900;SDS011;62235;52.160;7.526;2023-05-10T10:09:51;20.27;;;8.52;;
73900;SDS011;62235;52.160;7.526;2023-05-10T10:12:17;16.00;;;7.32;;
73900;SDS011;62235;52.160;7.526;2023-05-10T10:14:42;22.10;;;10.18;;
73900;SDS011;62235;52.160;7.526;2023-05-10T10:17:08;16.75;;;8.13;;
73900;SDS011;62235;52.160;7.526;2023-05-10T10:19:34;20.20;;;8.90;;
73900;SDS011;62235;52.160;7.526;2023-05-10T10:22:02;19.67;;;9.00;;
73900;SDS011;62235;52.160;7.526;2023-05-10T10:24:27;15.70;;;6.80;;
73900;SDS011;62235;52.160;7.526;2023-05-10T10:26:54;11.55;;;5.13;;
73900;SDS011;62235;52.160;7.526;2023-05-10T10:32:19;13.35;;;5.80;;
73900;SDS011;62235;52.160;7.526;2023-05-10T10:34:49;17.23;;;7.35;;
73900;SDS011;62235;52.160;7.526;2023-05-10T10:37:15;20.33;;;7.75;;
73900;SDS011;62235;52.160;7.526;2023-05-10T10:39:40;21.20;;;9.48;;
73900;SDS011;62235;52.160;7.526;2023-05-10T10:42:05;17.67;;;8.27;;
73900;SDS011;62235;52.160;7.526;2023-05-10T10:49:25;16.48;;;7.88;;
73900;SDS011;62235;52.160;7.526;2023-05-10T10:57:49;17.58;;;8.20;;
73900;SDS011;62235;52.160;7.526;2023-05-10T11:00:18;12.82;;;5.82;;
73900;SDS011;62235;52.160;7.526;2023-05-10T11:02:44;10.35;;;4.60;;
73900;SDS011;62235;52.160;7.526;2023-05-10T11:05:23;14.07;;;7.28;;
73900;SDS011;62235;52.160;7.526;2023-05-10T11:12:57;14.13;;;6.22;;
73900;SDS011;62235;52.160;7.526;2023-05-10T11:15:29;17.48;;;8.13;;
73900;SDS011;62235;52.160;7.526;2023-05-10T11:17:55;19.13;;;8.35;;
73900;SDS011;62235;52.160;7.526;2023-05-10T11:20:21;16.30;;;8.65;;
73900;SDS011;62235;52.160;7.526;2023-05-10T11:22:53;11.02;;;5.03;;
73900;SDS011;62235;52.160;7.526;2023-05-10T11:25:19;17.73;;;7.45;;
73900;SDS011;62235;52.160;7.526;2023-05-10T11:27:45;13.02;;;7.05;;
73900;SDS011;62235;52.160;7.526;2023-05-10T11:30:12;15.88;;;8.35;;
73900;SDS011;62235;52.160;7.526;2023-05-10T11:32:39;13.43;;;6.15;;
73900;SDS011;62235;52.160;7.526;2023-05-10T11:35:08;11.55;;;5.65;;
73900;SDS011;62235;52.160;7.526;2023-05-10T11:37:34;9.43;;;4.93;;
73900;SDS011;62235;52.160;7.526;2023-05-10T11:39:59;17.88;;;9.93;;
73900;SDS011;62235;52.160;7.526;2023-05-10T11:42:25;14.38;;;8.13;;
73900;SDS011;62235;52.160;7.526;2023-05-10T11:44:50;18.00;;;8.07;;
73900;SDS011;62235;52.160;7.526;2023-05-10T11:47:15;16.05;;;7.68;;
73900;SDS011;62235;52.160;7.526;2023-05-10T11:49:44;9.73;;;4.53;;
73900;SDS011;62235;52.160;7.526;2023-05-10T11:52:10;16.25;;;7.68;;
73900;SDS011;62235;52.160;7.526;2023-05-10T11:54:44;15.82;;;9.13;;
73900;SDS011;62235;52.160;7.526;2023-05-10T11:57:17;11.98;;;5.90;;
73900;SDS011;62235;52.160;7.526;2023-05-10T11:59:43;9.25;;;5.18;;
73900;SDS011;62235;52.160;7.526;2023-05-10T12:02:09;12.40;;;6.82;;
73900;SDS011;62235;52.160;7.526;2023-05-10T12:04:35;7.93;;;4.32;;
73900;SDS011;62235;52.160;7.526;2023-05-10T12:07:00;13.38;;;5.95;;
73900;SDS011;62235;52.160;7.526;2023-05-10T12:09:26;13.63;;;6.72;;
73900;SDS011;62235;52.160;7.526;2023-05-10T12:11:54;15.03;;;7.77;;
73900;SDS011;62235;52.160;7.526;2023-05-10T12:14:22;16.33;;;9.52;;
73900;SDS011;62235;52.160;7.526;2023-05-10T12:16:47;15.85;;;9.25;;
73900;SDS011;62235;52.160;7.526;2023-05-10T12:19:12;16.08;;;8.70;;
73900;SDS011;62235;52.160;7.526;2023-05-10T12:21:43;10.93;;;5.30;;
73900;SDS011;62235;52.160;7.526;2023-05-10T12:24:09;13.27;;;7.13;;
73900;SDS011;62235;52.160;7.526;2023-05-10T12:26:35;14.68;;;7.65;;
73900;SDS011;62235;52.160;7.526;2023-05-10T12:29:19;15.75;;;9.93;;
73900;SDS011;62235;52.160;7.526;2023-05-10T12:31:48;15.25;;;7.50;;
73900;SDS011;62235;52.160;7.526;2023-05-10T12:36:55;15.85;;;8.63;;
73900;SDS011;62235;52.160;7.526;2023-05-10T12:39:21;14.68;;;6.97;;
73900;SDS011;62235;52.160;7.526;2023-05-10T12:41:46;8.43;;;4.30;;
73900;SDS011;62235;52.160;7.526;2023-05-10T12:44:11;10.82;;;4.53;;
73900;SDS011;62235;52.160;7.526;2023-05-10T12:46:37;16.30;;;8.15;;
73900;SDS011;62235;52.160;7.526;2023-05-10T12:49:02;14.13;;;7.40;;
73900;SDS011;62235;52.160;7.526;2023-05-10T12:51:27;17.47;;;5.77;;
73900;SDS011;62235;52.160;7.526;2023-05-10T12:53:53;12.90;;;5.83;;
73900;SDS011;62235;52.160;7.526;2023-05-10T12:56:19;16.95;;;7.95;;
73900;SDS011;62235;52.160;7.526;2023-05-10T12:58:45;11.30;;;6.00;;
73900;SDS011;62235;52.160;7.526;2023-05-10T13:01:12;13.88;;;7.15;;
73900;SDS011;62235;52.160;7.526;2023-05-10T13:03:38;7.03;;;3.88;;
73900;SDS011;62235;52.160;7.526;2023-05-10T13:06:04;14.03;;;7.60;;
73900;SDS011;62235;52.160;7.526;2023-05-10T13:08:29;21.10;;;6.53;;
73900;SDS011;62235;52.160;7.526;2023-05-10T13:10:58;9.13;;;4.80;;
73900;SDS011;62235;52.160;7.526;2023-05-10T13:13:23;7.78;;;3.75;;
73900;SDS011;62235;52.160;7.526;2023-05-10T13:15:49;10.67;;;5.10;;
73900;SDS011;62235;52.160;7.526;2023-05-10T13:18:14;9.93;;;4.47;;
73900;SDS011;62235;52.160;7.526;2023-05-10T13:20:39;12.90;;;5.13;;
73900;SDS011;62235;52.160;7.526;2023-05-10T13:23:05;9.63;;;5.30;;
73900;SDS011;62235;52.160;7.526;2023-05-10T13:25:30;13.23;;;6.77;;
73900;SDS011;62235;52.160;7.526;2023-05-10T13:27:55;14.07;;;6.15;;
73900;SDS011;62235;52.160;7.526;2023-05-10T13:30:21;12.03;;;6.57;;
73900;SDS011;62235;52.160;7.526;2023-05-10T13:32:46;14.70;;;7.00;;
73900;SDS011;62235;52.160;7.526;2023-05-10T13:35:12;16.30;;;7.43;;
73900;SDS011;62235;52.160;7.526;2023-05-10T13:37:37;15.55;;;7.72;;
73900;SDS011;62235;52.160;7.526;2023-05-10T13:40:02;16.45;;;9.27;;
73900;SDS011;62235;52.160;7.526;2023-05-10T13:42:29;15.70;;;7.18;;
73900;SDS011;62235;52.160;7.526;2023-05-10T13:44:58;18.17;;;8.27;;
73900;SDS011;62235;52.160;7.526;2023-05-10T13:47:25;20.40;;;8.98;;
73900;SDS011;62235;52.160;7.526;2023-05-10T13:49:50;15.80;;;7.13;;
73900;SDS011;62235;52.160;7.526;2023-05-10T13:52:16;16.38;;;8.20;;
73900;SDS011;62235;52.160;7.526;2023-05-10T13:54:41;15.82;;;8.30;;
73900;SDS011;62235;52.160;7.526;2023-05-10T13:57:06;14.97;;;6.60;;
73900;SDS011;62235;52.160;7.526;2023-05-10T13:59:32;16.63;;;9.13;;
73900;SDS011;62235;52.160;7.526;2023-05-10T14:01:58;11.68;;;6.82;;
73900;SDS011;62235;52.160;7.526;2023-05-10T14:04:23;14.88;;;7.85;;
73900;SDS011;62235;52.160;7.526;2023-05-10T14:06:49;16.75;;;7.05;;
73900;SDS011;62235;52.160;7.526;2023-05-10T14:09:14;16.13;;;9.17;;
73900;SDS011;62235;52.160;7.526;2023-05-10T14:11:40;17.23;;;8.23;;
73900;SDS011;62235;52.160;7.526;2023-05-10T14:14:08;16.80;;;7.85;;
73900;SDS011;62235;52.160;7.526;2023-05-10T14:16:33;11.23;;;5.10;;
73900;SDS011;62235;52.160;7.526;2023-05-10T14:18:59;16.92;;;7.80;;
73900;SDS011;62235;52.160;7.526;2023-05-10T14:21:24;17.50;;;9.85;;
73900;SDS011;62235;52.160;7.526;2023-05-10T14:23:50;11.25;;;5.90;;
73900;SDS011;62235;52.160;7.526;2023-05-10T14:26:15;16.30;;;8.67;;
73900;SDS011;62235;52.160;7.526;2023-05-10T14:28:41;14.77;;;7.00;;
73900;SDS011;62235;52.160;7.526;2023-05-10T14:31:06;14.40;;;6.28;;
73900;SDS011;62235;52.160;7.526;2023-05-10T14:33:31;14.67;;;7.27;;
73900;SDS011;62235;52.160;7.526;2023-05-10T14:35:57;14.63;;;8.32;;
73900;SDS011;62235;52.160;7.526;2023-05-10T14:38:22;12.60;;;6.72;;
73900;SDS011;62235;52.160;7.526;2023-05-10T14:40:48;15.40;;;7.28;;
73900;SDS011;62235;52.160;7.526;2023-05-10T14:43:13;14.70;;;5.80;;
73900;SDS011;62235;52.160;7.526;2023-05-10T14:45:39;15.00;;;6.20;;
73900;SDS011;62235;52.160;7.526;2023-05-10T14:48:04;9.77;;;4.87;;
73900;SDS011;62235;52.160;7.526;2023-05-10T14:50:29;14.30;;;8.40;;
73900;SDS011;62235;52.160;7.526;2023-05-10T14:52:56;14.02;;;7.32;;
73900;SDS011;62235;52.160;7.526;2023-05-10T14:55:21;15.98;;;8.57;;
73900;SDS011;62235;52.160;7.526;2023-05-10T14:57:47;14.07;;;6.95;;
73900;SDS011;62235;52.160;7.526;2023-05-10T15:00:14;12.73;;;6.85;;
73900;SDS011;62235;52.160;7.526;2023-05-10T15:02:40;16.55;;;7.97;;
73900;SDS011;62235;52.160;7.526;2023-05-10T15:05:06;14.90;;;7.80;;
73900;SDS011;62235;52.160;7.526;2023-05-10T15:07:32;15.60;;;7.93;;
73900;SDS011;62235;52.160;7.526;2023-05-10T15:09:57;13.07;;;5.50;;
73900;SDS011;62235;52.160;7.526;2023-05-10T15:12:22;7.63;;;3.70;;
73900;SDS011;62235;52.160;7.526;2023-05-10T15:14:47;13.70;;;6.80;;